sensor_id;sensor_type;location;lat;lon;timestamp;temperature;humidity
40340;DHT22;26044;50.864;20.658;2023-05-17T00:00:56;12.50;99.90
40340;DHT22;26044;50.864;20.658;2023-05-17T00:03:23;12.50;99.90
40340;DHT22;26044;50.864;20.658;2023-05-17T00:05:50;12.50;99.90
40340;DHT22;26044;50.864;20.658;2023-05-17T00:08:17;12.40;99.90
40340;DHT22;26044;50.864;20.658;2023-05-17T00:10:44;12.50;99.90
40340;DHT22;26044;50.864;20.658;2023-05-17T00:13:11;12.40;99.90
40340;DHT22;26044;50.864;20.658;2023-05-17T00:15:37;12.50;99.90
40340;DHT22;26044;50.864;20.658;2023-05-17T00:18:04;12.50;99.90
40340;DHT22;26044;50.864;20.658;2023-05-17T00:20:31;12.50;99.90
40340;DHT22;26044;50.864;20.658;2023-05-17T00:22:58;12.50;99.90
40340;DHT22;26044;50.864;20.658;2023-05-17T00:25:26;12.50;99.90
40340;DHT22;26044;50.864;20.658;2023-05-17T00:27:53;12.70;99.90
40340;DHT22;26044;50.864;20.658;2023-05-17T00:30:20;12.60;99.90
40340;DHT22;26044;50.864;20.658;2023-05-17T00:32:47;12.60;99.90
40340;DHT22;26044;50.864;20.658;2023-05-17T00:35:14;12.60;99.90
40340;DHT22;26044;50.864;20.658;2023-05-17T00:37:41;12.60;99.90
40340;DHT22;26044;50.864;20.658;2023-05-17T00:40:14;12.60;99.90
40340;DHT22;26044;50.864;20.658;2023-05-17T00:42:41;12.60;99.90
40340;DHT22;26044;50.864;20.658;2023-05-17T00:45:09;12.60;99.90
40340;DHT22;26044;50.864;20.658;2023-05-17T00:47:36;12.60;99.90
40340;DHT22;26044;50.864;20.658;2023-05-17T00:50:04;12.60;99.90
40340;DHT22;26044;50.864;20.658;2023-05-17T00:52:32;12.60;99.90
40340;DHT22;26044;50.864;20.658;2023-05-17T00:54:58;12.60;99.90
40340;DHT22;26044;50.864;20.658;2023-05-17T00:57:25;12.50;99.90
40340;DHT22;26044;50.864;20.658;2023-05-17T00:59:55;12.50;99.90
40340;DHT22;26044;50.864;20.658;2023-05-17T01:02:21;12.50;99.90
40340;DHT22;26044;50.864;20.658;2023-05-17T01:04:49;12.50;99.90
40340;DHT22;26044;50.864;20.658;2023-05-17T01:07:16;12.50;99.90
40340;DHT22;26044;50.864;20.658;2023-05-17T01:09:43;12.50;99.90
40340;DHT22;26044;50.864;20.658;2023-05-17T01:12:29;12.60;99.90
40340;DHT22;26044;50.864;20.658;2023-05-17T01:20:26;12.60;99.90
40340;DHT22;26044;50.864;20.658;2023-05-17T01:23:06;12.60;99.90
40340;DHT22;26044;50.864;20.658;2023-05-17T01:26:05;12.60;99.90
40340;DHT22;26044;50.864;20.658;2023-05-17T01:28:36;12.60;99.90
40340;DHT22;26044;50.864;20.658;2023-05-17T01:31:04;12.50;99.90
40340;DHT22;26044;50.864;20.658;2023-05-17T01:33:31;12.50;99.90
40340;DHT22;26044;50.864;20.658;2023-05-17T01:35:58;12.60;99.90
40340;DHT22;26044;50.864;20.658;2023-05-17T01:38:25;12.50;99.90
40340;DHT22;26044;50.864;20.658;2023-05-17T01:46:30;12.50;99.90
40340;DHT22;26044;50.864;20.658;2023-05-17T01:49:28;12.50;99.90
40340;DHT22;26044;50.864;20.658;2023-05-17T01:52:18;12.50;99.90
40340;DHT22;26044;50.864;20.658;2023-05-17T01:57:28;12.40;99.90
40340;DHT22;26044;50.864;20.658;2023-05-17T01:59:59;12.50;99.90
40340;DHT22;26044;50.864;20.658;2023-05-17T02:02:26;12.40;99.90
40340;DHT22;26044;50.864;20.658;2023-05-17T02:04:52;12.40;99.90
40340;DHT22;26044;50.864;20.658;2023-05-17T02:07:20;12.40;99.90
40340;DHT22;26044;50.864;20.658;2023-05-17T02:09:47;12.50;99.90
40340;DHT22;26044;50.864;20.658;2023-05-17T02:12:14;12.50;99.90
40340;DHT22;26044;50.864;20.658;2023-05-17T02:14:41;12.40;99.90
40340;DHT22;26044;50.864;20.658;2023-05-17T02:17:08;12.40;99.90
40340;DHT22;26044;50.864;20.658;2023-05-17T02:19:35;12.50;99.90
40340;DHT22;26044;50.864;20.658;2023-05-17T02:22:02;12.40;99.90
40340;DHT22;26044;50.864;20.658;2023-05-17T02:24:29;12.40;99.90
40340;DHT22;26044;50.864;20.658;2023-05-17T02:26:56;12.40;99.90
40340;DHT22;26044;50.864;20.658;2023-05-17T02:29:23;12.40;99.90
40340;DHT22;26044;50.864;20.658;2023-05-17T02:31:49;12.40;99.90
40340;DHT22;26044;50.864;20.658;2023-05-17T02:34:16;12.40;99.90
40340;DHT22;26044;50.864;20.658;2023-05-17T02:36:43;12.40;99.90
40340;DHT22;26044;50.864;20.658;2023-05-17T02:39:10;12.40;99.90
40340;DHT22;26044;50.864;20.658;2023-05-17T02:41:37;12.50;99.90
40340;DHT22;26044;50.864;20.658;2023-05-17T02:44:04;12.40;99.90
40340;DHT22;26044;50.864;20.658;2023-05-17T02:46:31;12.40;99.90
40340;DHT22;26044;50.864;20.658;2023-05-17T02:48:58;12.40;99.90
40340;DHT22;26044;50.864;20.658;2023-05-17T02:51:25;12.50;99.90
40340;DHT22;26044;50.864;20.658;2023-05-17T02:53:51;12.40;99.90
40340;DHT22;26044;50.864;20.658;2023-05-17T02:56:18;12.40;99.90
40340;DHT22;26044;50.864;20.658;2023-05-17T02:58:45;12.40;99.90
40340;DHT22;26044;50.864;20.658;2023-05-17T03:01:12;12.30;99.90
40340;DHT22;26044;50.864;20.658;2023-05-17T03:03:39;12.40;99.90
40340;DHT22;26044;50.864;20.658;2023-05-17T03:06:06;12.30;99.90
40340;DHT22;26044;50.864;20.658;2023-05-17T03:08:33;12.30;99.90
40340;DHT22;26044;50.864;20.658;2023-05-17T03:11:00;12.40;99.90
40340;DHT22;26044;50.864;20.658;2023-05-17T03:13:27;12.40;99.90
40340;DHT22;26044;50.864;20.658;2023-05-17T03:15:54;12.40;99.90
40340;DHT22;26044;50.864;20.658;2023-05-17T03:18:21;12.40;99.90
40340;DHT22;26044;50.864;20.658;2023-05-17T03:20:48;12.40;99.90
40340;DHT22;26044;50.864;20.658;2023-05-17T03:23:15;12.40;99.90
40340;DHT22;26044;50.864;20.658;2023-05-17T03:25:41;12.40;99.90
40340;DHT22;26044;50.864;20.658;2023-05-17T03:28:08;12.50;99.90
40340;DHT22;26044;50.864;20.658;2023-05-17T03:30:35;12.40;99.90
40340;DHT22;26044;50.864;20.658;2023-05-17T03:33:02;12.40;99.90
40340;DHT22;26044;50.864;20.658;2023-05-17T03:35:29;12.40;99.90
40340;DHT22;26044;50.864;20.658;2023-05-17T03:37:56;12.40;99.90
40340;DHT22;26044;50.864;20.658;2023-05-17T03:40:23;12.40;99.90
40340;DHT22;26044;50.864;20.658;2023-05-17T03:42:50;12.40;99.90
40340;DHT22;26044;50.864;20.658;2023-05-17T03:45:17;12.30;99.90
40340;DHT22;26044;50.864;20.658;2023-05-17T03:47:44;12.30;99.90
40340;DHT22;26044;50.864;20.658;2023-05-17T03:50:11;12.30;99.90
40340;DHT22;26044;50.864;20.658;2023-05-17T03:52:38;12.30;99.90
40340;DHT22;26044;50.864;20.658;2023-05-17T03:55:08;12.30;99.90
40340;DHT22;26044;50.864;20.658;2023-05-17T03:57:35;12.30;99.90
40340;DHT22;26044;50.864;20.658;2023-05-17T04:00:02;12.40;99.90
40340;DHT22;26044;50.864;20.658;2023-05-17T04:02:32;12.30;99.90
40340;DHT22;26044;50.864;20.658;2023-05-17T04:04:59;12.40;99.90
40340;DHT22;26044;50.864;20.658;2023-05-17T04:07:26;12.30;99.90
40340;DHT22;26044;50.864;20.658;2023-05-17T04:09:55;12.30;99.90
40340;DHT22;26044;50.864;20.658;2023-05-17T04:12:24;12.30;99.90
40340;DHT22;26044;50.864;20.658;2023-05-17T04:14:51;12.30;99.90
40340;DHT22;26044;50.864;20.658;2023-05-17T04:17:18;12.30;99.90
40340;DHT22;26044;50.864;20.658;2023-05-17T04:19:45;12.30;99.90
40340;DHT22;26044;50.864;20.658;2023-05-17T04:22:12;12.30;99.90
40340;DHT22;26044;50.864;20.658;2023-05-17T04:24:39;12.30;99.90
40340;DHT22;26044;50.864;20.658;2023-05-17T04:27:06;12.30;99.90
40340;DHT22;26044;50.864;20.658;2023-05-17T04:29:33;12.40;99.90
40340;DHT22;26044;50.864;20.658;2023-05-17T04:32:00;12.30;99.90
40340;DHT22;26044;50.864;20.658;2023-05-17T04:34:27;12.30;99.90
40340;DHT22;26044;50.864;20.658;2023-05-17T04:36:54;12.30;99.90
40340;DHT22;26044;50.864;20.658;2023-05-17T04:39:20;12.30;99.90
40340;DHT22;26044;50.864;20.658;2023-05-17T04:41:48;12.30;99.90
40340;DHT22;26044;50.864;20.658;2023-05-17T04:44:15;12.30;99.90
40340;DHT22;26044;50.864;20.658;2023-05-17T04:46:42;12.40;99.90
40340;DHT22;26044;50.864;20.658;2023-05-17T04:49:09;12.30;99.90
40340;DHT22;26044;50.864;20.658;2023-05-17T04:51:39;12.30;99.90
40340;DHT22;26044;50.864;20.658;2023-05-17T04:54:06;12.30;99.90
40340;DHT22;26044;50.864;20.658;2023-05-17T04:56:34;12.40;99.90
40340;DHT22;26044;50.864;20.658;2023-05-17T04:59:04;12.40;99.90
40340;DHT22;26044;50.864;20.658;2023-05-17T05:01:31;12.40;99.90
40340;DHT22;26044;50.864;20.658;2023-05-17T05:04:00;12.40;99.90
40340;DHT22;26044;50.864;20.658;2023-05-17T05:06:33;12.40;99.90
40340;DHT22;26044;50.864;20.658;2023-05-17T05:09:00;12.40;99.90
40340;DHT22;26044;50.864;20.658;2023-05-17T05:11:27;12.40;99.90
40340;DHT22;26044;50.864;20.658;2023-05-17T05:13:54;12.30;99.90
40340;DHT22;26044;50.864;20.658;2023-05-17T05:16:23;12.30;99.90
40340;DHT22;26044;50.864;20.658;2023-05-17T05:18:50;12.30;99.90
40340;DHT22;26044;50.864;20.658;2023-05-17T05:21:17;12.30;99.90
40340;DHT22;26044;50.864;20.658;2023-05-17T05:23:44;12.30;99.90
40340;DHT22;26044;50.864;20.658;2023-05-17T05:26:11;12.30;99.90
40340;DHT22;26044;50.864;20.658;2023-05-17T05:28:38;12.30;99.90
40340;DHT22;26044;50.864;20.658;2023-05-17T05:31:06;12.30;99.90
40340;DHT22;26044;50.864;20.658;2023-05-17T05:33:33;12.30;99.90
40340;DHT22;26044;50.864;20.658;2023-05-17T05:36:00;12.40;99.90
40340;DHT22;26044;50.864;20.658;2023-05-17T05:38:27;12.40;99.90
40340;DHT22;26044;50.864;20.658;2023-05-17T05:40:54;12.40;99.90
40340;DHT22;26044;50.864;20.658;2023-05-17T05:43:21;12.30;99.90
40340;DHT22;26044;50.864;20.658;2023-05-17T05:45:48;12.40;99.90
40340;DHT22;26044;50.864;20.658;2023-05-17T05:48:15;12.40;99.90
40340;DHT22;26044;50.864;20.658;2023-05-17T05:50:43;12.30;99.90
40340;DHT22;26044;50.864;20.658;2023-05-17T05:53:10;12.40;99.90
40340;DHT22;26044;50.864;20.658;2023-05-17T05:55:45;12.40;99.90
40340;DHT22;26044;50.864;20.658;2023-05-17T05:58:12;12.40;99.90
40340;DHT22;26044;50.864;20.658;2023-05-17T06:00:41;12.40;99.90
40340;DHT22;26044;50.864;20.658;2023-05-17T06:03:11;12.40;99.90
40340;DHT22;26044;50.864;20.658;2023-05-17T06:05:38;12.40;99.90
40340;DHT22;26044;50.864;20.658;2023-05-17T06:08:06;12.40;99.90
40340;DHT22;26044;50.864;20.658;2023-05-17T06:10:33;12.40;99.90
40340;DHT22;26044;50.864;20.658;2023-05-17T06:13:00;12.40;99.90
40340;DHT22;26044;50.864;20.658;2023-05-17T06:15:27;12.40;99.90
40340;DHT22;26044;50.864;20.658;2023-05-17T06:17:54;12.40;99.90
40340;DHT22;26044;50.864;20.658;2023-05-17T06:20:21;12.40;99.90
40340;DHT22;26044;50.864;20.658;2023-05-17T06:22:49;12.40;99.90
40340;DHT22;26044;50.864;20.658;2023-05-17T06:25:16;12.40;99.90
40340;DHT22;26044;50.864;20.658;2023-05-17T06:27:43;12.40;99.90
40340;DHT22;26044;50.864;20.658;2023-05-17T06:30:10;12.40;99.90
40340;DHT22;26044;50.864;20.658;2023-05-17T06:32:38;12.40;99.90
40340;DHT22;26044;50.864;20.658;2023-05-17T06:35:06;12.40;99.90
40340;DHT22;26044;50.864;20.658;2023-05-17T06:37:33;12.40;99.90
40340;DHT22;26044;50.864;20.658;2023-05-17T06:40:02;12.40;99.90
40340;DHT22;26044;50.864;20.658;2023-05-17T06:42:41;12.40;99.90
40340;DHT22;26044;50.864;20.658;2023-05-17T06:45:08;12.40;99.90
40340;DHT22;26044;50.864;20.658;2023-05-17T06:47:36;12.40;99.90
40340;DHT22;26044;50.864;20.658;2023-05-17T06:50:03;12.50;99.90
40340;DHT22;26044;50.864;20.658;2023-05-17T06:52:30;12.50;99.90
40340;DHT22;26044;50.864;20.658;2023-05-17T06:54:57;12.50;99.90
40340;DHT22;26044;50.864;20.658;2023-05-17T06:57:26;12.50;99.90
40340;DHT22;26044;50.864;20.658;2023-05-17T06:59:55;12.50;99.90
40340;DHT22;26044;50.864;20.658;2023-05-17T07:02:22;12.50;99.90
40340;DHT22;26044;50.864;20.658;2023-05-17T07:04:49;12.50;99.90
40340;DHT22;26044;50.864;20.658;2023-05-17T07:07:16;12.60;99.90
40340;DHT22;26044;50.864;20.658;2023-05-17T07:09:43;12.50;99.90
40340;DHT22;26044;50.864;20.658;2023-05-17T07:12:12;12.50;99.90
40340;DHT22;26044;50.864;20.658;2023-05-17T07:14:40;12.50;99.90
40340;DHT22;26044;50.864;20.658;2023-05-17T07:17:10;12.50;99.90
40340;DHT22;26044;50.864;20.658;2023-05-17T07:19:37;12.60;99.90
40340;DHT22;26044;50.864;20.658;2023-05-17T07:22:05;12.60;99.90
40340;DHT22;26044;50.864;20.658;2023-05-17T07:24:32;12.60;99.90
40340;DHT22;26044;50.864;20.658;2023-05-17T07:27:01;12.60;99.90
40340;DHT22;26044;50.864;20.658;2023-05-17T07:29:28;12.60;99.90
40340;DHT22;26044;50.864;20.658;2023-05-17T07:31:55;12.60;99.90
40340;DHT22;26044;50.864;20.658;2023-05-17T07:34:24;12.60;99.90
40340;DHT22;26044;50.864;20.658;2023-05-17T07:36:51;12.70;99.90
40340;DHT22;26044;50.864;20.658;2023-05-17T07:39:20;12.70;99.90
40340;DHT22;26044;50.864;20.658;2023-05-17T07:41:47;12.70;99.90
40340;DHT22;26044;50.864;20.658;2023-05-17T07:44:14;12.70;99.90
40340;DHT22;26044;50.864;20.658;2023-05-17T07:46:41;12.70;99.90
40340;DHT22;26044;50.864;20.658;2023-05-17T07:49:08;12.70;99.90
40340;DHT22;26044;50.864;20.658;2023-05-17T07:51:35;12.70;99.90
40340;DHT22;26044;50.864;20.658;2023-05-17T07:54:02;12.70;99.90
40340;DHT22;26044;50.864;20.658;2023-05-17T07:56:29;12.70;99.90
40340;DHT22;26044;50.864;20.658;2023-05-17T07:58:57;12.70;99.90
40340;DHT22;26044;50.864;20.658;2023-05-17T08:01:24;12.80;99.90
40340;DHT22;26044;50.864;20.658;2023-05-17T08:03:51;12.70;99.90
40340;DHT22;26044;50.864;20.658;2023-05-17T08:06:18;12.70;99.90
40340;DHT22;26044;50.864;20.658;2023-05-17T08:08:45;12.70;99.90
40340;DHT22;26044;50.864;20.658;2023-05-17T08:11:15;12.70;99.90
40340;DHT22;26044;50.864;20.658;2023-05-17T08:13:45;12.70;99.90
40340;DHT22;26044;50.864;20.658;2023-05-17T08:16:12;12.80;99.90
40340;DHT22;26044;50.864;20.658;2023-05-17T08:18:45;12.80;99.90
40340;DHT22;26044;50.864;20.658;2023-05-17T08:21:14;12.80;99.90
40340;DHT22;26044;50.864;20.658;2023-05-17T08:23:42;12.80;99.90
40340;DHT22;26044;50.864;20.658;2023-05-17T08:26:09;12.80;99.90
40340;DHT22;26044;50.864;20.658;2023-05-17T08:28:38;12.80;99.90
40340;DHT22;26044;50.864;20.658;2023-05-17T08:31:06;12.70;99.90
40340;DHT22;26044;50.864;20.658;2023-05-17T08:33:33;12.80;99.90
40340;DHT22;26044;50.864;20.658;2023-05-17T08:36:03;12.70;99.90
40340;DHT22;26044;50.864;20.658;2023-05-17T08:38:34;12.70;99.90
40340;DHT22;26044;50.864;20.658;2023-05-17T08:41:01;12.80;99.90
40340;DHT22;26044;50.864;20.658;2023-05-17T08:43:29;12.70;99.90
40340;DHT22;26044;50.864;20.658;2023-05-17T08:45:57;12.80;99.90
40340;DHT22;26044;50.864;20.658;2023-05-17T08:48:25;12.80;99.90
40340;DHT22;26044;50.864;20.658;2023-05-17T08:50:54;12.70;99.90
40340;DHT22;26044;50.864;20.658;2023-05-17T08:53:21;12.80;99.90
40340;DHT22;26044;50.864;20.658;2023-05-17T08:55:50;12.80;99.90
40340;DHT22;26044;50.864;20.658;2023-05-17T08:58:20;12.80;99.90
40340;DHT22;26044;50.864;20.658;2023-05-17T09:00:52;12.80;99.90
40340;DHT22;26044;50.864;20.658;2023-05-17T09:03:21;12.80;99.90
40340;DHT22;26044;50.864;20.658;2023-05-17T09:05:51;12.80;99.90
40340;DHT22;26044;50.864;20.658;2023-05-17T09:08:21;12.80;99.90
40340;DHT22;26044;50.864;20.658;2023-05-17T09:10:49;12.80;99.90
40340;DHT22;26044;50.864;20.658;2023-05-17T09:13:16;12.80;99.90
40340;DHT22;26044;50.864;20.658;2023-05-17T09:15:44;12.80;99.90
40340;DHT22;26044;50.864;20.658;2023-05-17T09:18:13;12.90;99.90
40340;DHT22;26044;50.864;20.658;2023-05-17T09:20:49;12.90;99.90
40340;DHT22;26044;50.864;20.658;2023-05-17T09:23:19;12.80;99.90
40340;DHT22;26044;50.864;20.658;2023-05-17T09:25:47;12.80;99.90
40340;DHT22;26044;50.864;20.658;2023-05-17T09:28:17;12.90;99.90
40340;DHT22;26044;50.864;20.658;2023-05-17T09:30:47;12.90;99.90
40340;DHT22;26044;50.864;20.658;2023-05-17T09:33:14;12.80;99.90
40340;DHT22;26044;50.864;20.658;2023-05-17T09:35:44;12.80;99.90
40340;DHT22;26044;50.864;20.658;2023-05-17T09:38:12;12.80;99.90
40340;DHT22;26044;50.864;20.658;2023-05-17T09:40:43;12.70;99.90
40340;DHT22;26044;50.864;20.658;2023-05-17T09:43:11;12.80;99.90
40340;DHT22;26044;50.864;20.658;2023-05-17T09:45:39;12.70;99.90
40340;DHT22;26044;50.864;20.658;2023-05-17T09:48:13;12.70;99.90
40340;DHT22;26044;50.864;20.658;2023-05-17T09:50:49;12.70;99.90
40340;DHT22;26044;50.864;20.658;2023-05-17T09:53:31;12.70;99.90
40340;DHT22;26044;50.864;20.658;2023-05-17T09:56:02;12.70;99.90
40340;DHT22;26044;50.864;20.658;2023-05-17T09:58:32;12.70;99.90
40340;DHT22;26044;50.864;20.658;2023-05-17T10:01:04;12.70;99.90
40340;DHT22;26044;50.864;20.658;2023-05-17T10:03:37;12.70;99.90
40340;DHT22;26044;50.864;20.658;2023-05-17T10:06:08;12.70;99.90
40340;DHT22;26044;50.864;20.658;2023-05-17T10:08:43;12.70;99.90
40340;DHT22;26044;50.864;20.658;2023-05-17T10:11:13;12.70;99.90
40340;DHT22;26044;50.864;20.658;2023-05-17T10:13:54;12.70;99.90
40340;DHT22;26044;50.864;20.658;2023-05-17T10:16:24;12.70;99.90
40340;DHT22;26044;50.864;20.658;2023-05-17T10:18:52;12.70;99.90
40340;DHT22;26044;50.864;20.658;2023-05-17T10:21:20;12.70;99.90
40340;DHT22;26044;50.864;20.658;2023-05-17T10:23:48;12.70;99.90
40340;DHT22;26044;50.864;20.658;2023-05-17T10:26:20;12.70;99.90
40340;DHT22;26044;50.864;20.658;2023-05-17T10:28:48;12.60;99.90
40340;DHT22;26044;50.864;20.658;2023-05-17T10:31:19;12.60;99.90
40340;DHT22;26044;50.864;20.658;2023-05-17T10:33:46;12.70;99.90
40340;DHT22;26044;50.864;20.658;2023-05-17T10:36:16;12.60;99.90
40340;DHT22;26044;50.864;20.658;2023-05-17T10:38:44;12.60;99.90
40340;DHT22;26044;50.864;20.658;2023-05-17T10:41:12;12.60;99.90
40340;DHT22;26044;50.864;20.658;2023-05-17T10:43:41;12.60;99.90
40340;DHT22;26044;50.864;20.658;2023-05-17T10:46:14;12.60;99.90
40340;DHT22;26044;50.864;20.658;2023-05-17T10:48:42;12.60;99.90
40340;DHT22;26044;50.864;20.658;2023-05-17T10:51:10;12.60;99.90
40340;DHT22;26044;50.864;20.658;2023-05-17T10:56:30;12.60;99.90
40340;DHT22;26044;50.864;20.658;2023-05-17T10:59:23;12.60;99.90
40340;DHT22;26044;50.864;20.658;2023-05-17T11:04:33;12.50;99.90
40340;DHT22;26044;50.864;20.658;2023-05-17T11:07:22;12.40;99.90
40340;DHT22;26044;50.864;20.658;2023-05-17T11:12:38;12.50;99.90
40340;DHT22;26044;50.864;20.658;2023-05-17T11:15:22;12.40;99.90
40340;DHT22;26044;50.864;20.658;2023-05-17T11:17:50;12.50;99.90
40340;DHT22;26044;50.864;20.658;2023-05-17T11:23:13;12.50;99.90
40340;DHT22;26044;50.864;20.658;2023-05-17T11:25:42;12.40;99.90
40340;DHT22;26044;50.864;20.658;2023-05-17T11:28:17;12.40;99.90
40340;DHT22;26044;50.864;20.658;2023-05-17T11:30:45;12.40;99.90
40340;DHT22;26044;50.864;20.658;2023-05-17T11:33:19;12.40;99.90
40340;DHT22;26044;50.864;20.658;2023-05-17T11:36:05;12.40;99.90
40340;DHT22;26044;50.864;20.658;2023-05-17T11:38:38;12.40;99.90
40340;DHT22;26044;50.864;20.658;2023-05-17T11:41:17;12.40;99.90
40340;DHT22;26044;50.864;20.658;2023-05-17T11:43:48;12.40;99.90
40340;DHT22;26044;50.864;20.658;2023-05-17T11:46:20;12.40;99.90
40340;DHT22;26044;50.864;20.658;2023-05-17T11:48:49;12.40;99.90
40340;DHT22;26044;50.864;20.658;2023-05-17T11:51:17;12.40;99.90
40340;DHT22;26044;50.864;20.658;2023-05-17T11:53:48;12.40;99.90
40340;DHT22;26044;50.864;20.658;2023-05-17T11:56:16;12.40;99.90
40340;DHT22;26044;50.864;20.658;2023-05-17T11:58:50;12.50;99.90
40340;DHT22;26044;50.864;20.658;2023-05-17T12:01:18;12.50;99.90
40340;DHT22;26044;50.864;20.658;2023-05-17T12:03:45;12.50;99.90
40340;DHT22;26044;50.864;20.658;2023-05-17T12:06:16;12.40;99.90
40340;DHT22;26044;50.864;20.658;2023-05-17T12:08:44;12.50;99.90
40340;DHT22;26044;50.864;20.658;2023-05-17T12:11:13;12.40;99.90
40340;DHT22;26044;50.864;20.658;2023-05-17T12:13:41;12.40;99.90
40340;DHT22;26044;50.864;20.658;2023-05-17T12:16:13;12.40;99.90
40340;DHT22;26044;50.864;20.658;2023-05-17T12:18:46;12.30;99.90
40340;DHT22;26044;50.864;20.658;2023-05-17T12:21:14;12.30;99.90
40340;DHT22;26044;50.864;20.658;2023-05-17T12:23:43;12.30;99.90
40340;DHT22;26044;50.864;20.658;2023-05-17T12:26:15;12.30;99.90
40340;DHT22;26044;50.864;20.658;2023-05-17T12:28:51;12.30;99.90
40340;DHT22;26044;50.864;20.658;2023-05-17T12:31:21;12.30;99.90
40340;DHT22;26044;50.864;20.658;2023-05-17T12:33:50;12.20;99.90
40340;DHT22;26044;50.864;20.658;2023-05-17T12:36:18;12.10;99.90
40340;DHT22;26044;50.864;20.658;2023-05-17T12:38:46;12.10;99.90
40340;DHT22;26044;50.864;20.658;2023-05-17T12:41:14;12.10;99.90
40340;DHT22;26044;50.864;20.658;2023-05-17T12:43:43;12.00;99.90
40340;DHT22;26044;50.864;20.658;2023-05-17T12:46:12;12.00;99.90
40340;DHT22;26044;50.864;20.658;2023-05-17T12:48:40;12.10;99.90
40340;DHT22;26044;50.864;20.658;2023-05-17T12:51:11;12.00;99.90
40340;DHT22;26044;50.864;20.658;2023-05-17T12:53:42;12.00;99.90
40340;DHT22;26044;50.864;20.658;2023-05-17T12:56:23;11.90;99.90
40340;DHT22;26044;50.864;20.658;2023-05-17T13:01:43;11.80;99.90
40340;DHT22;26044;50.864;20.658;2023-05-17T13:04:11;11.70;99.90
40340;DHT22;26044;50.864;20.658;2023-05-17T13:06:48;11.70;99.90
40340;DHT22;26044;50.864;20.658;2023-05-17T13:09:17;11.70;99.90
40340;DHT22;26044;50.864;20.658;2023-05-17T13:11:54;11.70;99.90
40340;DHT22;26044;50.864;20.658;2023-05-17T13:17:05;11.50;99.90
40340;DHT22;26044;50.864;20.658;2023-05-17T13:19:32;11.50;99.90
40340;DHT22;26044;50.864;20.658;2023-05-17T13:22:02;11.50;99.90
40340;DHT22;26044;50.864;20.658;2023-05-17T13:24:32;11.40;99.90
40340;DHT22;26044;50.864;20.658;2023-05-17T13:27:00;11.40;99.90
40340;DHT22;26044;50.864;20.658;2023-05-17T13:29:28;11.40;99.90
40340;DHT22;26044;50.864;20.658;2023-05-17T13:32:06;11.40;99.90
40340;DHT22;26044;50.864;20.658;2023-05-17T13:34:35;11.40;99.90
40340;DHT22;26044;50.864;20.658;2023-05-17T13:37:03;11.40;99.90
40340;DHT22;26044;50.864;20.658;2023-05-17T13:39:30;11.40;99.90
40340;DHT22;26044;50.864;20.658;2023-05-17T13:41:57;11.30;99.90
40340;DHT22;26044;50.864;20.658;2023-05-17T13:44:25;11.30;99.90
40340;DHT22;26044;50.864;20.658;2023-05-17T13:46:52;11.20;99.90
40340;DHT22;26044;50.864;20.658;2023-05-17T13:49:20;11.30;99.90
40340;DHT22;26044;50.864;20.658;2023-05-17T13:51:47;11.20;99.90
40340;DHT22;26044;50.864;20.658;2023-05-17T13:54:13;11.30;99.90
40340;DHT22;26044;50.864;20.658;2023-05-17T13:56:42;11.30;99.90
40340;DHT22;26044;50.864;20.658;2023-05-17T13:59:08;11.20;99.90
40340;DHT22;26044;50.864;20.658;2023-05-17T14:01:35;11.30;99.90
40340;DHT22;26044;50.864;20.658;2023-05-17T14:04:03;11.30;99.90
40340;DHT22;26044;50.864;20.658;2023-05-17T14:06:30;11.30;99.90
40340;DHT22;26044;50.864;20.658;2023-05-17T14:08:57;11.30;99.90
40340;DHT22;26044;50.864;20.658;2023-05-17T14:11:26;11.30;99.90
40340;DHT22;26044;50.864;20.658;2023-05-17T14:13:56;11.30;99.90
40340;DHT22;26044;50.864;20.658;2023-05-17T14:16:22;11.30;99.90
40340;DHT22;26044;50.864;20.658;2023-05-17T14:18:49;11.30;99.90
40340;DHT22;26044;50.864;20.658;2023-05-17T14:21:16;11.30;99.90
40340;DHT22;26044;50.864;20.658;2023-05-17T14:23:43;11.30;99.90
40340;DHT22;26044;50.864;20.658;2023-05-17T14:26:10;11.30;99.90
40340;DHT22;26044;50.864;20.658;2023-05-17T14:28:37;11.30;99.90
40340;DHT22;26044;50.864;20.658;2023-05-17T14:31:05;11.30;99.90
40340;DHT22;26044;50.864;20.658;2023-05-17T14:33:33;11.30;99.90
40340;DHT22;26044;50.864;20.658;2023-05-17T14:36:01;11.30;99.90
40340;DHT22;26044;50.864;20.658;2023-05-17T14:38:29;11.30;99.90
40340;DHT22;26044;50.864;20.658;2023-05-17T14:40:57;11.20;99.90
40340;DHT22;26044;50.864;20.658;2023-05-17T14:43:26;11.30;99.90
40340;DHT22;26044;50.864;20.658;2023-05-17T14:45:53;11.20;99.90
40340;DHT22;26044;50.864;20.658;2023-05-17T14:48:19;11.10;99.90
40340;DHT22;26044;50.864;20.658;2023-05-17T14:50:46;11.20;99.90
40340;DHT22;26044;50.864;20.658;2023-05-17T14:53:13;11.10;99.90
40340;DHT22;26044;50.864;20.658;2023-05-17T14:55:45;11.10;99.90
40340;DHT22;26044;50.864;20.658;2023-05-17T14:58:13;11.10;99.90
40340;DHT22;26044;50.864;20.658;2023-05-17T15:00:40;11.10;99.90
40340;DHT22;26044;50.864;20.658;2023-05-17T15:03:15;11.10;99.90
40340;DHT22;26044;50.864;20.658;2023-05-17T15:05:55;11.10;99.90
40340;DHT22;26044;50.864;20.658;2023-05-17T15:08:25;11.10;99.90
40340;DHT22;26044;50.864;20.658;2023-05-17T15:10:52;11.10;99.90
40340;DHT22;26044;50.864;20.658;2023-05-17T15:13:20;11.00;99.90
40340;DHT22;26044;50.864;20.658;2023-05-17T15:15:47;11.10;99.90
40340;DHT22;26044;50.864;20.658;2023-05-17T15:18:14;11.00;99.90
40340;DHT22;26044;50.864;20.658;2023-05-17T15:20:41;10.90;99.90
40340;DHT22;26044;50.864;20.658;2023-05-17T15:23:08;11.00;99.90
40340;DHT22;26044;50.864;20.658;2023-05-17T15:25:35;10.80;99.90
40340;DHT22;26044;50.864;20.658;2023-05-17T15:28:03;10.80;99.90
40340;DHT22;26044;50.864;20.658;2023-05-17T15:30:35;10.70;99.90
40340;DHT22;26044;50.864;20.658;2023-05-17T15:33:02;10.70;99.90
40340;DHT22;26044;50.864;20.658;2023-05-17T15:35:32;10.60;99.90
40340;DHT22;26044;50.864;20.658;2023-05-17T15:38:02;10.60;99.90
40340;DHT22;26044;50.864;20.658;2023-05-17T15:40:31;10.50;99.90
40340;DHT22;26044;50.864;20.658;2023-05-17T15:42:59;10.50;99.90
40340;DHT22;26044;50.864;20.658;2023-05-17T15:45:27;10.40;99.90
40340;DHT22;26044;50.864;20.658;2023-05-17T15:47:55;10.40;99.90
40340;DHT22;26044;50.864;20.658;2023-05-17T15:50:22;10.50;99.90
40340;DHT22;26044;50.864;20.658;2023-05-17T15:52:49;10.50;99.90
40340;DHT22;26044;50.864;20.658;2023-05-17T15:55:16;10.50;99.90